JFK weather

John F Kennedy International Airport
New York, New York, United States

Public forecast

Using degrees Fahrenheit for public forecast. Weather courtesy of forecast.io.

METAR (pilot weather report)

Retrieved 2017/03/28 12:51 UTC (1 hour ago):

KJFK 281251Z 06009KT 8SM OVC006 08/07 A2995

TAF (pilot weather forecast)

Retrieved 2017/03/28 12:24 UTC (2 hours ago):

TAF KJFK 281120Z 2812/2918 08006KT 1 1/2SM BR OVC007 TEMPO 2812/2814 3/4SM BR OVC004 FM281400 09005KT 1 1/2SM BR OVC006 FM281900 08004KT 3SM -RA BR OVC008 FM290000 04004KT 3SM -RA BR OVC008 FM290500 02005KT 5SM BR OVC010 FM290800 35008KT P6SM BKN020 FM291500 34014KT P6SM SCT025